Terminal Aerodrome Forecast
Issued by NWS Mt. Holly, NJ

Home | Current Version | Previous Version | Text Only | Print | Product List | Glossary On
Versions: 1 2 3 4 5 6 7 8 9 10 11 12 13 14 15 16 17 18 19 20 21 22 23 24 25 26 27 28 29 30 31 32 33 34 35 36 37 38 39 40 41 42 43 44
000
FTAK31 PANC 302016 AAB
TAFABE
TAF AMD
PABE 302016Z 3020/3118 30010KT P6SM OVC060
     FM302130 33011KT 4SM -SN BR OVC020
     FM302300 32011KT P6SM VCSH SCT025 BKN035
     FM310500 VRB05KT 1/2SM FG VV002=

USA.gov is the U.S. government's official web portal to all federal, state and local government web resources and services.